sensor_id;sensor_type;location;lat;lon;timestamp;P1;durP1;ratioP1;P2;durP2;ratioP2
32838;SDS011;19182;41.820;12.808;2023-05-10T01:13:29;12.70;;;8.93;;
32838;SDS011;19182;41.820;12.808;2023-05-10T01:15:56;12.93;;;8.95;;
32838;SDS011;19182;41.820;12.808;2023-05-10T01:18:22;20.60;;;10.32;;
32838;SDS011;19182;41.820;12.808;2023-05-10T01:29:28;7.65;;;6.85;;
32838;SDS011;19182;41.820;12.808;2023-05-10T01:34:56;7.68;;;6.35;;
32838;SDS011;19182;41.820;12.808;2023-05-10T01:37:27;9.90;;;5.97;;
32838;SDS011;19182;41.820;12.808;2023-05-10T01:40:00;7.32;;;5.75;;
32838;SDS011;19182;41.820;12.808;2023-05-10T01:42:28;5.75;;;5.03;;
32838;SDS011;19182;41.820;12.808;2023-05-10T01:50:41;8.05;;;5.28;;
32838;SDS011;19182;41.820;12.808;2023-05-10T01:53:09;8.27;;;5.18;;
32838;SDS011;19182;41.820;12.808;2023-05-10T02:09:02;8.68;;;5.88;;
32838;SDS011;19182;41.820;12.808;2023-05-10T02:11:31;8.90;;;5.85;;
32838;SDS011;19182;41.820;12.808;2023-05-10T02:13:58;10.32;;;6.30;;
32838;SDS011;19182;41.820;12.808;2023-05-10T02:16:26;10.70;;;6.10;;
32838;SDS011;19182;41.820;12.808;2023-05-10T02:18:55;7.93;;;5.25;;
32838;SDS011;19182;41.820;12.808;2023-05-10T02:21:23;11.40;;;6.10;;
32838;SDS011;19182;41.820;12.808;2023-05-10T02:23:50;5.82;;;4.95;;
32838;SDS011;19182;41.820;12.808;2023-05-10T02:26:18;17.10;;;5.47;;
32838;SDS011;19182;41.820;12.808;2023-05-10T02:28:47;7.13;;;6.10;;
32838;SDS011;19182;41.820;12.808;2023-05-10T02:31:15;9.07;;;5.47;;
32838;SDS011;19182;41.820;12.808;2023-05-10T02:33:42;7.72;;;5.55;;
32838;SDS011;19182;41.820;12.808;2023-05-10T02:36:09;11.25;;;5.85;;
32838;SDS011;19182;41.820;12.808;2023-05-10T02:38:37;9.57;;;5.45;;
32838;SDS011;19182;41.820;12.808;2023-05-10T02:47:42;12.48;;;5.82;;
32838;SDS011;19182;41.820;12.808;2023-05-10T02:50:08;10.25;;;6.90;;
32838;SDS011;19182;41.820;12.808;2023-05-10T02:52:46;7.18;;;5.35;;
32838;SDS011;19182;41.820;12.808;2023-05-10T02:55:16;11.65;;;5.63;;
32838;SDS011;19182;41.820;12.808;2023-05-10T02:57:51;12.52;;;5.75;;
32838;SDS011;19182;41.820;12.808;2023-05-10T03:00:19;8.40;;;5.20;;
32838;SDS011;19182;41.820;12.808;2023-05-10T03:02:45;12.00;;;5.63;;
32838;SDS011;19182;41.820;12.808;2023-05-10T03:05:11;9.48;;;5.38;;
32838;SDS011;19182;41.820;12.808;2023-05-10T03:07:37;10.45;;;6.35;;
32838;SDS011;19182;41.820;12.808;2023-05-10T03:10:03;11.45;;;5.57;;
32838;SDS011;19182;41.820;12.808;2023-05-10T03:18:09;6.50;;;5.07;;
32838;SDS011;19182;41.820;12.808;2023-05-10T03:20:46;10.45;;;5.93;;
32838;SDS011;19182;41.820;12.808;2023-05-10T03:23:35;8.77;;;5.70;;
32838;SDS011;19182;41.820;12.808;2023-05-10T03:26:05;10.68;;;5.85;;
32838;SDS011;19182;41.820;12.808;2023-05-10T03:28:33;7.18;;;6.03;;
32838;SDS011;19182;41.820;12.808;2023-05-10T03:31:00;9.93;;;7.32;;
32838;SDS011;19182;41.820;12.808;2023-05-10T03:33:27;11.55;;;6.47;;
32838;SDS011;19182;41.820;12.808;2023-05-10T03:35:53;9.27;;;6.07;;
32838;SDS011;19182;41.820;12.808;2023-05-10T03:38:19;8.38;;;6.38;;
32838;SDS011;19182;41.820;12.808;2023-05-10T03:40:45;6.75;;;5.28;;
32838;SDS011;19182;41.820;12.808;2023-05-10T03:43:12;6.88;;;5.75;;
32838;SDS011;19182;41.820;12.808;2023-05-10T03:45:38;7.65;;;5.53;;
32838;SDS011;19182;41.820;12.808;2023-05-10T03:48:04;13.60;;;5.97;;
32838;SDS011;19182;41.820;12.808;2023-05-10T03:50:30;10.23;;;6.30;;
32838;SDS011;19182;41.820;12.808;2023-05-10T03:52:56;8.20;;;6.53;;
32838;SDS011;19182;41.820;12.808;2023-05-10T03:55:22;8.35;;;6.45;;
32838;SDS011;19182;41.820;12.808;2023-05-10T03:57:48;8.88;;;6.07;;
32838;SDS011;19182;41.820;12.808;2023-05-10T04:00:18;9.68;;;5.90;;
32838;SDS011;19182;41.820;12.808;2023-05-10T04:02:45;7.75;;;5.63;;
32838;SDS011;19182;41.820;12.808;2023-05-10T04:05:10;10.23;;;5.63;;
32838;SDS011;19182;41.820;12.808;2023-05-10T04:07:36;9.35;;;6.78;;
32838;SDS011;19182;41.820;12.808;2023-05-10T04:10:02;10.00;;;5.93;;
32838;SDS011;19182;41.820;12.808;2023-05-10T04:12:29;7.15;;;5.63;;
32838;SDS011;19182;41.820;12.808;2023-05-10T04:14:55;12.27;;;5.65;;
32838;SDS011;19182;41.820;12.808;2023-05-10T04:17:21;7.60;;;6.07;;
32838;SDS011;19182;41.820;12.808;2023-05-10T04:19:47;10.45;;;6.18;;
32838;SDS011;19182;41.820;12.808;2023-05-10T04:22:12;6.30;;;5.55;;
32838;SDS011;19182;41.820;12.808;2023-05-10T04:24:38;9.73;;;5.82;;
32838;SDS011;19182;41.820;12.808;2023-05-10T04:27:04;10.02;;;6.50;;
32838;SDS011;19182;41.820;12.808;2023-05-10T04:29:29;10.13;;;6.40;;
32838;SDS011;19182;41.820;12.808;2023-05-10T04:31:55;9.73;;;5.65;;
32838;SDS011;19182;41.820;12.808;2023-05-10T04:34:21;7.55;;;5.85;;
32838;SDS011;19182;41.820;12.808;2023-05-10T04:36:48;6.90;;;5.80;;
32838;SDS011;19182;41.820;12.808;2023-05-10T04:39:14;7.35;;;5.88;;
32838;SDS011;19182;41.820;12.808;2023-05-10T04:41:40;7.82;;;5.28;;
32838;SDS011;19182;41.820;12.808;2023-05-10T04:44:05;8.35;;;5.55;;
32838;SDS011;19182;41.820;12.808;2023-05-10T04:46:31;11.10;;;6.00;;
32838;SDS011;19182;41.820;12.808;2023-05-10T04:48:57;10.68;;;5.80;;
32838;SDS011;19182;41.820;12.808;2023-05-10T04:51:22;11.05;;;6.28;;
32838;SDS011;19182;41.820;12.808;2023-05-10T04:53:48;6.40;;;5.65;;
32838;SDS011;19182;41.820;12.808;2023-05-10T04:56:15;8.52;;;5.90;;
32838;SDS011;19182;41.820;12.808;2023-05-10T04:58:41;12.40;;;5.57;;
32838;SDS011;19182;41.820;12.808;2023-05-10T05:01:08;7.40;;;6.32;;
32838;SDS011;19182;41.820;12.808;2023-05-10T05:03:36;14.13;;;6.82;;
32838;SDS011;19182;41.820;12.808;2023-05-10T05:06:02;15.43;;;8.00;;
32838;SDS011;19182;41.820;12.808;2023-05-10T05:08:29;11.32;;;6.75;;
32838;SDS011;19182;41.820;12.808;2023-05-10T05:10:55;9.43;;;6.45;;
32838;SDS011;19182;41.820;12.808;2023-05-10T05:13:20;12.70;;;7.05;;
32838;SDS011;19182;41.820;12.808;2023-05-10T05:15:47;8.73;;;5.38;;
32838;SDS011;19182;41.820;12.808;2023-05-10T05:18:13;10.38;;;6.00;;
32838;SDS011;19182;41.820;12.808;2023-05-10T05:20:38;8.18;;;5.93;;
32838;SDS011;19182;41.820;12.808;2023-05-10T05:23:04;14.85;;;8.25;;
32838;SDS011;19182;41.820;12.808;2023-05-10T05:25:31;12.07;;;6.55;;
32838;SDS011;19182;41.820;12.808;2023-05-10T05:27:56;10.80;;;6.78;;
32838;SDS011;19182;41.820;12.808;2023-05-10T05:30:22;9.93;;;7.07;;
32838;SDS011;19182;41.820;12.808;2023-05-10T05:32:49;11.15;;;7.13;;
32838;SDS011;19182;41.820;12.808;2023-05-10T05:35:15;8.80;;;7.30;;
32838;SDS011;19182;41.820;12.808;2023-05-10T05:37:42;9.68;;;7.43;;
32838;SDS011;19182;41.820;12.808;2023-05-10T05:40:07;8.15;;;7.03;;
32838;SDS011;19182;41.820;12.808;2023-05-10T05:42:37;18.80;;;7.68;;
32838;SDS011;19182;41.820;12.808;2023-05-10T05:45:04;9.73;;;7.75;;
32838;SDS011;19182;41.820;12.808;2023-05-10T05:47:30;17.48;;;7.22;;
32838;SDS011;19182;41.820;12.808;2023-05-10T05:49:56;10.40;;;7.30;;
32838;SDS011;19182;41.820;12.808;2023-05-10T05:52:23;9.45;;;7.28;;
32838;SDS011;19182;41.820;12.808;2023-05-10T05:54:50;9.70;;;7.88;;
32838;SDS011;19182;41.820;12.808;2023-05-10T05:57:16;8.88;;;7.65;;
32838;SDS011;19182;41.820;12.808;2023-05-10T05:59:43;8.40;;;6.78;;
32838;SDS011;19182;41.820;12.808;2023-05-10T06:02:10;12.95;;;7.30;;
32838;SDS011;19182;41.820;12.808;2023-05-10T06:04:35;10.50;;;6.88;;
32838;SDS011;19182;41.820;12.808;2023-05-10T06:07:02;8.63;;;6.68;;
32838;SDS011;19182;41.820;12.808;2023-05-10T06:09:29;8.50;;;6.78;;
32838;SDS011;19182;41.820;12.808;2023-05-10T06:11:56;7.55;;;6.28;;
32838;SDS011;19182;41.820;12.808;2023-05-10T06:14:22;11.43;;;6.22;;
32838;SDS011;19182;41.820;12.808;2023-05-10T06:16:49;8.60;;;7.00;;
32838;SDS011;19182;41.820;12.808;2023-05-10T06:19:14;7.13;;;6.15;;
32838;SDS011;19182;41.820;12.808;2023-05-10T06:21:42;7.47;;;6.57;;
32838;SDS011;19182;41.820;12.808;2023-05-10T06:24:09;11.98;;;6.82;;
32838;SDS011;19182;41.820;12.808;2023-05-10T06:26:35;7.90;;;7.10;;
32838;SDS011;19182;41.820;12.808;2023-05-10T06:29:01;10.50;;;6.82;;
32838;SDS011;19182;41.820;12.808;2023-05-10T06:31:27;11.38;;;7.15;;
32838;SDS011;19182;41.820;12.808;2023-05-10T06:33:54;10.18;;;6.32;;
32838;SDS011;19182;41.820;12.808;2023-05-10T06:36:22;7.07;;;5.88;;
32838;SDS011;19182;41.820;12.808;2023-05-10T06:38:51;6.85;;;5.90;;
32838;SDS011;19182;41.820;12.808;2023-05-10T06:41:16;11.05;;;6.80;;
32838;SDS011;19182;41.820;12.808;2023-05-10T06:43:44;8.98;;;5.82;;
32838;SDS011;19182;41.820;12.808;2023-05-10T06:46:11;6.30;;;5.70;;
32838;SDS011;19182;41.820;12.808;2023-05-10T06:48:36;6.90;;;6.10;;
32838;SDS011;19182;41.820;12.808;2023-05-10T06:51:03;6.95;;;5.80;;
32838;SDS011;19182;41.820;12.808;2023-05-10T06:53:29;7.18;;;6.20;;
32838;SDS011;19182;41.820;12.808;2023-05-10T06:55:56;8.90;;;6.40;;
32838;SDS011;19182;41.820;12.808;2023-05-10T06:58:22;11.63;;;6.60;;
32838;SDS011;19182;41.820;12.808;2023-05-10T07:00:49;10.27;;;6.65;;
32838;SDS011;19182;41.820;12.808;2023-05-10T07:03:16;11.20;;;7.13;;
32838;SDS011;19182;41.820;12.808;2023-05-10T07:05:42;8.63;;;6.63;;
32838;SDS011;19182;41.820;12.808;2023-05-10T07:08:07;10.48;;;6.88;;
32838;SDS011;19182;41.820;12.808;2023-05-10T07:10:34;7.63;;;6.40;;
32838;SDS011;19182;41.820;12.808;2023-05-10T07:13:01;11.10;;;7.85;;
32838;SDS011;19182;41.820;12.808;2023-05-10T07:15:26;9.05;;;7.28;;
32838;SDS011;19182;41.820;12.808;2023-05-10T07:17:53;11.60;;;7.63;;
32838;SDS011;19182;41.820;12.808;2023-05-10T07:20:19;11.57;;;8.00;;
32838;SDS011;19182;41.820;12.808;2023-05-10T07:22:46;14.63;;;9.95;;
32838;SDS011;19182;41.820;12.808;2023-05-10T07:25:13;13.80;;;11.35;;
32838;SDS011;19182;41.820;12.808;2023-05-10T07:27:40;16.48;;;12.32;;
32838;SDS011;19182;41.820;12.808;2023-05-10T07:30:06;16.25;;;12.60;;
32838;SDS011;19182;41.820;12.808;2023-05-10T07:32:32;19.40;;;12.82;;
32838;SDS011;19182;41.820;12.808;2023-05-10T07:34:58;18.17;;;12.57;;
32838;SDS011;19182;41.820;12.808;2023-05-10T07:37:25;18.63;;;13.02;;
32838;SDS011;19182;41.820;12.808;2023-05-10T07:39:50;18.02;;;12.80;;
32838;SDS011;19182;41.820;12.808;2023-05-10T07:42:16;23.05;;;13.55;;
32838;SDS011;19182;41.820;12.808;2023-05-10T07:44:43;19.50;;;13.05;;
32838;SDS011;19182;41.820;12.808;2023-05-10T07:47:10;22.58;;;13.10;;
32838;SDS011;19182;41.820;12.808;2023-05-10T07:49:37;19.08;;;13.60;;
32838;SDS011;19182;41.820;12.808;2023-05-10T07:52:03;19.42;;;13.23;;
32838;SDS011;19182;41.820;12.808;2023-05-10T07:54:28;16.55;;;13.38;;
32838;SDS011;19182;41.820;12.808;2023-05-10T07:56:54;18.10;;;12.75;;
32838;SDS011;19182;41.820;12.808;2023-05-10T07:59:20;13.27;;;11.48;;
32838;SDS011;19182;41.820;12.808;2023-05-10T08:01:46;17.70;;;9.88;;
32838;SDS011;19182;41.820;12.808;2023-05-10T08:04:13;10.95;;;9.10;;
32838;SDS011;19182;41.820;12.808;2023-05-10T08:06:39;12.90;;;8.68;;
32838;SDS011;19182;41.820;12.808;2023-05-10T08:09:06;11.00;;;9.25;;
32838;SDS011;19182;41.820;12.808;2023-05-10T08:11:32;12.27;;;8.98;;
32838;SDS011;19182;41.820;12.808;2023-05-10T08:13:58;11.05;;;9.25;;
32838;SDS011;19182;41.820;12.808;2023-05-10T08:16:24;14.13;;;9.43;;
32838;SDS011;19182;41.820;12.808;2023-05-10T08:18:49;10.93;;;8.80;;
32838;SDS011;19182;41.820;12.808;2023-05-10T08:21:16;11.85;;;9.63;;
32838;SDS011;19182;41.820;12.808;2023-05-10T08:23:42;13.55;;;8.80;;
32838;SDS011;19182;41.820;12.808;2023-05-10T08:26:09;11.75;;;8.40;;
32838;SDS011;19182;41.820;12.808;2023-05-10T08:28:36;13.43;;;8.98;;
32838;SDS011;19182;41.820;12.808;2023-05-10T08:31:04;10.60;;;9.30;;
32838;SDS011;19182;41.820;12.808;2023-05-10T08:33:30;10.57;;;9.18;;
32838;SDS011;19182;41.820;12.808;2023-05-10T08:35:55;11.20;;;9.60;;
32838;SDS011;19182;41.820;12.808;2023-05-10T08:38:21;13.18;;;10.25;;
32838;SDS011;19182;41.820;12.808;2023-05-10T08:40:47;10.27;;;9.13;;
32838;SDS011;19182;41.820;12.808;2023-05-10T08:43:15;11.95;;;9.25;;
32838;SDS011;19182;41.820;12.808;2023-05-10T08:45:42;12.75;;;9.38;;
32838;SDS011;19182;41.820;12.808;2023-05-10T08:48:12;10.02;;;8.45;;
32838;SDS011;19182;41.820;12.808;2023-05-10T08:50:40;10.48;;;8.27;;
32838;SDS011;19182;41.820;12.808;2023-05-10T08:53:11;9.60;;;8.60;;
32838;SDS011;19182;41.820;12.808;2023-05-10T08:55:38;11.15;;;9.88;;
32838;SDS011;19182;41.820;12.808;2023-05-10T08:58:07;13.60;;;8.43;;
32838;SDS011;19182;41.820;12.808;2023-05-10T09:00:33;11.40;;;9.05;;
32838;SDS011;19182;41.820;12.808;2023-05-10T09:03:00;10.23;;;8.40;;
32838;SDS011;19182;41.820;12.808;2023-05-10T09:05:27;12.30;;;8.15;;
32838;SDS011;19182;41.820;12.808;2023-05-10T09:07:53;10.30;;;8.85;;
32838;SDS011;19182;41.820;12.808;2023-05-10T09:10:20;10.18;;;8.32;;
32838;SDS011;19182;41.820;12.808;2023-05-10T09:12:48;8.63;;;7.72;;
32838;SDS011;19182;41.820;12.808;2023-05-10T09:15:17;13.70;;;9.32;;
32838;SDS011;19182;41.820;12.808;2023-05-10T09:17:45;9.77;;;8.07;;
32838;SDS011;19182;41.820;12.808;2023-05-10T09:20:11;9.95;;;8.60;;
32838;SDS011;19182;41.820;12.808;2023-05-10T09:22:37;9.65;;;8.63;;
32838;SDS011;19182;41.820;12.808;2023-05-10T09:25:13;9.75;;;8.63;;
32838;SDS011;19182;41.820;12.808;2023-05-10T09:27:40;18.98;;;9.45;;
32838;SDS011;19182;41.820;12.808;2023-05-10T09:30:10;14.23;;;9.57;;
32838;SDS011;19182;41.820;12.808;2023-05-10T09:32:41;11.13;;;9.00;;
32838;SDS011;19182;41.820;12.808;2023-05-10T09:37:53;11.15;;;9.60;;
32838;SDS011;19182;41.820;12.808;2023-05-10T09:40:22;12.98;;;10.43;;
32838;SDS011;19182;41.820;12.808;2023-05-10T09:45:40;13.98;;;10.68;;
32838;SDS011;19182;41.820;12.808;2023-05-10T09:48:06;11.98;;;9.98;;
32838;SDS011;19182;41.820;12.808;2023-05-10T09:50:33;12.25;;;9.73;;
32838;SDS011;19182;41.820;12.808;2023-05-10T09:53:02;15.02;;;9.95;;
32838;SDS011;19182;41.820;12.808;2023-05-10T09:55:42;13.40;;;9.93;;
32838;SDS011;19182;41.820;12.808;2023-05-10T09:58:11;12.32;;;9.48;;
32838;SDS011;19182;41.820;12.808;2023-05-10T10:00:41;10.98;;;9.13;;
32838;SDS011;19182;41.820;12.808;2023-05-10T10:03:20;11.57;;;9.53;;
32838;SDS011;19182;41.820;12.808;2023-05-10T10:05:46;10.45;;;8.45;;
32838;SDS011;19182;41.820;12.808;2023-05-10T10:08:14;11.30;;;8.23;;
32838;SDS011;19182;41.820;12.808;2023-05-10T10:10:40;10.57;;;8.15;;
32838;SDS011;19182;41.820;12.808;2023-05-10T10:13:07;9.77;;;7.55;;
32838;SDS011;19182;41.820;12.808;2023-05-10T10:15:34;12.07;;;8.15;;
32838;SDS011;19182;41.820;12.808;2023-05-10T10:18:00;10.48;;;8.27;;
32838;SDS011;19182;41.820;12.808;2023-05-10T10:20:28;12.07;;;8.00;;
32838;SDS011;19182;41.820;12.808;2023-05-10T10:22:54;10.98;;;7.90;;
32838;SDS011;19182;41.820;12.808;2023-05-10T10:25:21;8.07;;;7.05;;
32838;SDS011;19182;41.820;12.808;2023-05-10T10:30:23;8.00;;;7.00;;
32838;SDS011;19182;41.820;12.808;2023-05-10T10:35:49;7.43;;;6.68;;
32838;SDS011;19182;41.820;12.808;2023-05-10T10:38:15;9.05;;;6.05;;
32838;SDS011;19182;41.820;12.808;2023-05-10T10:40:42;7.40;;;6.10;;
32838;SDS011;19182;41.820;12.808;2023-05-10T10:43:26;6.18;;;5.57;;
32838;SDS011;19182;41.820;12.808;2023-05-10T10:48:48;6.28;;;5.00;;
32838;SDS011;19182;41.820;12.808;2023-05-10T10:51:17;7.30;;;5.35;;
32838;SDS011;19182;41.820;12.808;2023-05-10T10:53:43;6.38;;;4.97;;
32838;SDS011;19182;41.820;12.808;2023-05-10T10:56:10;6.35;;;4.93;;
32838;SDS011;19182;41.820;12.808;2023-05-10T10:58:40;8.32;;;5.22;;
32838;SDS011;19182;41.820;12.808;2023-05-10T11:06:40;7.70;;;5.57;;
32838;SDS011;19182;41.820;12.808;2023-05-10T11:09:08;5.78;;;4.57;;
32838;SDS011;19182;41.820;12.808;2023-05-10T11:11:35;7.78;;;5.40;;
32838;SDS011;19182;41.820;12.808;2023-05-10T11:14:13;7.28;;;5.93;;
32838;SDS011;19182;41.820;12.808;2023-05-10T11:16:44;6.68;;;5.30;;
32838;SDS011;19182;41.820;12.808;2023-05-10T11:19:11;6.03;;;5.07;;
32838;SDS011;19182;41.820;12.808;2023-05-10T11:24:14;7.10;;;6.00;;
32838;SDS011;19182;41.820;12.808;2023-05-10T11:26:41;7.75;;;6.20;;
32838;SDS011;19182;41.820;12.808;2023-05-10T11:29:08;8.25;;;6.43;;
32838;SDS011;19182;41.820;12.808;2023-05-10T11:31:41;7.97;;;6.40;;
32838;SDS011;19182;41.820;12.808;2023-05-10T11:34:10;7.15;;;6.07;;
32838;SDS011;19182;41.820;12.808;2023-05-10T11:36:36;7.28;;;6.22;;
32838;SDS011;19182;41.820;12.808;2023-05-10T11:39:02;7.75;;;6.95;;
32838;SDS011;19182;41.820;12.808;2023-05-10T11:41:29;10.10;;;7.10;;
32838;SDS011;19182;41.820;12.808;2023-05-10T11:43:56;9.20;;;7.07;;
32838;SDS011;19182;41.820;12.808;2023-05-10T11:46:23;10.82;;;6.85;;
32838;SDS011;19182;41.820;12.808;2023-05-10T11:48:52;10.20;;;6.30;;
32838;SDS011;19182;41.820;12.808;2023-05-10T11:51:20;9.18;;;6.35;;
32838;SDS011;19182;41.820;12.808;2023-05-10T11:53:46;9.88;;;6.85;;
32838;SDS011;19182;41.820;12.808;2023-05-10T11:56:12;7.18;;;5.95;;
32838;SDS011;19182;41.820;12.808;2023-05-10T11:58:38;9.07;;;6.50;;
32838;SDS011;19182;41.820;12.808;2023-05-10T12:01:06;6.30;;;5.70;;
32838;SDS011;19182;41.820;12.808;2023-05-10T12:03:32;10.13;;;6.38;;
32838;SDS011;19182;41.820;12.808;2023-05-10T12:05:59;8.55;;;6.20;;
32838;SDS011;19182;41.820;12.808;2023-05-10T12:08:26;9.73;;;6.80;;
32838;SDS011;19182;41.820;12.808;2023-05-10T12:10:54;8.68;;;6.72;;
32838;SDS011;19182;41.820;12.808;2023-05-10T12:13:32;7.43;;;6.32;;
32838;SDS011;19182;41.820;12.808;2023-05-10T12:16:18;5.03;;;4.00;;
32838;SDS011;19182;41.820;12.808;2023-05-10T12:18:48;3.85;;;3.38;;
32838;SDS011;19182;41.820;12.808;2023-05-10T12:21:19;6.07;;;3.60;;
32838;SDS011;19182;41.820;12.808;2023-05-10T12:23:52;4.53;;;3.13;;
32838;SDS011;19182;41.820;12.808;2023-05-10T12:26:22;6.00;;;3.55;;
32838;SDS011;19182;41.820;12.808;2023-05-10T12:28:52;4.13;;;3.72;;
32838;SDS011;19182;41.820;12.808;2023-05-10T12:31:20;5.15;;;3.55;;
32838;SDS011;19182;41.820;12.808;2023-05-10T12:33:46;4.47;;;3.15;;
32838;SDS011;19182;41.820;12.808;2023-05-10T12:36:14;4.72;;;3.00;;
32838;SDS011;19182;41.820;12.808;2023-05-10T12:38:42;6.30;;;3.00;;
32838;SDS011;19182;41.820;12.808;2023-05-10T12:41:11;3.58;;;3.17;;
32838;SDS011;19182;41.820;12.808;2023-05-10T12:43:38;5.90;;;3.10;;
32838;SDS011;19182;41.820;12.808;2023-05-10T12:46:05;4.18;;;2.13;;
32838;SDS011;19182;41.820;12.808;2023-05-10T12:48:32;5.50;;;1.65;;
32838;SDS011;19182;41.820;12.808;2023-05-10T12:50:59;5.00;;;1.63;;
32838;SDS011;19182;41.820;12.808;2023-05-10T12:53:25;4.53;;;1.42;;
32838;SDS011;19182;41.820;12.808;2023-05-10T12:55:51;9.25;;;3.42;;
32838;SDS011;19182;41.820;12.808;2023-05-10T12:58:18;2.65;;;1.30;;
32838;SDS011;19182;41.820;12.808;2023-05-10T13:00:44;6.55;;;1.95;;
32838;SDS011;19182;41.820;12.808;2023-05-10T13:03:12;4.50;;;1.80;;
32838;SDS011;19182;41.820;12.808;2023-05-10T13:05:37;12.52;;;1.80;;
32838;SDS011;19182;41.820;12.808;2023-05-10T13:08:04;6.60;;;2.17;;
32838;SDS011;19182;41.820;12.808;2023-05-10T13:10:30;9.13;;;2.35;;
32838;SDS011;19182;41.820;12.808;2023-05-10T13:13:00;13.30;;;1.88;;
32838;SDS011;19182;41.820;12.808;2023-05-10T13:15:26;9.60;;;2.00;;
32838;SDS011;19182;41.820;12.808;2023-05-10T13:17:52;7.85;;;2.03;;
32838;SDS011;19182;41.820;12.808;2023-05-10T13:20:19;9.00;;;2.38;;
32838;SDS011;19182;41.820;12.808;2023-05-10T13:22:46;8.70;;;2.13;;
32838;SDS011;19182;41.820;12.808;2023-05-10T13:25:12;7.97;;;1.85;;
32838;SDS011;19182;41.820;12.808;2023-05-10T13:27:39;9.13;;;1.88;;
32838;SDS011;19182;41.820;12.808;2023-05-10T13:30:05;6.82;;;2.30;;
32838;SDS011;19182;41.820;12.808;2023-05-10T13:32:32;11.68;;;2.83;;
32838;SDS011;19182;41.820;12.808;2023-05-10T13:34:58;8.73;;;2.40;;
32838;SDS011;19182;41.820;12.808;2023-05-10T13:37:24;8.88;;;2.90;;
32838;SDS011;19182;41.820;12.808;2023-05-10T13:39:51;11.68;;;4.68;;
32838;SDS011;19182;41.820;12.808;2023-05-10T13:42:18;7.65;;;2.05;;
32838;SDS011;19182;41.820;12.808;2023-05-10T13:44:43;10.90;;;2.33;;
32838;SDS011;19182;41.820;12.808;2023-05-10T13:47:09;11.73;;;2.03;;
32838;SDS011;19182;41.820;12.808;2023-05-10T13:49:35;12.85;;;2.38;;
32838;SDS011;19182;41.820;12.808;2023-05-10T13:52:01;8.57;;;2.85;;
32838;SDS011;19182;41.820;12.808;2023-05-10T13:54:32;8.23;;;1.73;;
32838;SDS011;19182;41.820;12.808;2023-05-10T13:56:58;6.18;;;1.50;;
32838;SDS011;19182;41.820;12.808;2023-05-10T13:59:24;10.57;;;1.75;;
32838;SDS011;19182;41.820;12.808;2023-05-10T14:01:50;6.10;;;1.75;;
32838;SDS011;19182;41.820;12.808;2023-05-10T14:04:17;6.32;;;1.48;;
32838;SDS011;19182;41.820;12.808;2023-05-10T14:06:43;6.95;;;1.70;;
32838;SDS011;19182;41.820;12.808;2023-05-10T14:09:09;13.77;;;2.63;;
32838;SDS011;19182;41.820;12.808;2023-05-10T14:11:35;6.47;;;1.77;;
32838;SDS011;19182;41.820;12.808;2023-05-10T14:14:07;5.53;;;1.80;;
32838;SDS011;19182;41.820;12.808;2023-05-10T14:16:34;5.85;;;1.65;;
32838;SDS011;19182;41.820;12.808;2023-05-10T14:19:00;4.55;;;1.30;;
32838;SDS011;19182;41.820;12.808;2023-05-10T14:21:26;5.15;;;1.33;;
32838;SDS011;19182;41.820;12.808;2023-05-10T14:23:56;3.92;;;1.67;;
32838;SDS011;19182;41.820;12.808;2023-05-10T14:26:22;4.90;;;1.70;;
32838;SDS011;19182;41.820;12.808;2023-05-10T14:28:47;5.45;;;1.80;;
32838;SDS011;19182;41.820;12.808;2023-05-10T14:31:13;5.72;;;1.75;;
32838;SDS011;19182;41.820;12.808;2023-05-10T14:33:39;3.70;;;1.50;;
32838;SDS011;19182;41.820;12.808;2023-05-10T14:36:06;6.20;;;1.75;;
32838;SDS011;19182;41.820;12.808;2023-05-10T14:38:33;6.28;;;1.70;;
32838;SDS011;19182;41.820;12.808;2023-05-10T14:40:59;7.07;;;1.45;;
32838;SDS011;19182;41.820;12.808;2023-05-10T14:43:27;4.75;;;1.95;;
32838;SDS011;19182;41.820;12.808;2023-05-10T14:45:55;8.25;;;1.48;;
32838;SDS011;19182;41.820;12.808;2023-05-10T14:48:21;7.35;;;1.75;;
32838;SDS011;19182;41.820;12.808;2023-05-10T14:50:46;2.92;;;1.20;;
32838;SDS011;19182;41.820;12.808;2023-05-10T14:53:12;6.13;;;1.70;;
32838;SDS011;19182;41.820;12.808;2023-05-10T14:55:41;5.57;;;1.50;;
32838;SDS011;19182;41.820;12.808;2023-05-10T14:58:07;5.80;;;1.35;;
32838;SDS011;19182;41.820;12.808;2023-05-10T15:00:33;3.97;;;1.63;;
32838;SDS011;19182;41.820;12.808;2023-05-10T15:02:59;10.48;;;2.00;;
32838;SDS011;19182;41.820;12.808;2023-05-10T15:05:25;8.88;;;1.77;;
32838;SDS011;19182;41.820;12.808;2023-05-10T15:07:51;6.32;;;1.85;;
32838;SDS011;19182;41.820;12.808;2023-05-10T15:10:17;2.97;;;1.65;;
32838;SDS011;19182;41.820;12.808;2023-05-10T15:12:44;5.30;;;1.95;;
32838;SDS011;19182;41.820;12.808;2023-05-10T15:15:10;12.50;;;4.43;;
32838;SDS011;19182;41.820;12.808;2023-05-10T15:17:37;6.50;;;2.40;;
32838;SDS011;19182;41.820;12.808;2023-05-10T15:20:04;9.23;;;2.17;;
32838;SDS011;19182;41.820;12.808;2023-05-10T15:22:30;8.18;;;3.08;;
32838;SDS011;19182;41.820;12.808;2023-05-10T15:24:58;7.85;;;3.47;;
32838;SDS011;19182;41.820;12.808;2023-05-10T15:27:25;11.60;;;3.53;;
32838;SDS011;19182;41.820;12.808;2023-05-10T15:29:51;5.50;;;3.10;;
32838;SDS011;19182;41.820;12.808;2023-05-10T15:32:18;6.50;;;2.78;;
32838;SDS011;19182;41.820;12.808;2023-05-10T15:34:44;3.40;;;2.08;;
32838;SDS011;19182;41.820;12.808;2023-05-10T15:37:10;5.65;;;2.17;;
32838;SDS011;19182;41.820;12.808;2023-05-10T15:39:36;3.17;;;2.00;;
32838;SDS011;19182;41.820;12.808;2023-05-10T15:42:02;5.88;;;2.67;;
32838;SDS011;19182;41.820;12.808;2023-05-10T15:44:31;7.13;;;2.17;;
32838;SDS011;19182;41.820;12.808;2023-05-10T15:47:00;15.30;;;7.10;;
32838;SDS011;19182;41.820;12.808;2023-05-10T15:49:28;7.03;;;4.32;;
32838;SDS011;19182;41.820;12.808;2023-05-10T15:51:53;4.35;;;2.22;;
32838;SDS011;19182;41.820;12.808;2023-05-10T15:54:19;4.82;;;2.72;;
32838;SDS011;19182;41.820;12.808;2023-05-10T15:56:45;5.65;;;3.15;;
32838;SDS011;19182;41.820;12.808;2023-05-10T15:59:11;6.13;;;2.13;;
32838;SDS011;19182;41.820;12.808;2023-05-10T16:01:36;9.73;;;6.93;;
32838;SDS011;19182;41.820;12.808;2023-05-10T16:04:02;7.72;;;3.35;;
32838;SDS011;19182;41.820;12.808;2023-05-10T16:06:30;26.42;;;16.40;;
32838;SDS011;19182;41.820;12.808;2023-05-10T16:08:56;19.95;;;11.68;;
32838;SDS011;19182;41.820;12.808;2023-05-10T16:11:22;10.13;;;4.15;;
32838;SDS011;19182;41.820;12.808;2023-05-10T16:13:48;3.03;;;2.13;;
32838;SDS011;19182;41.820;12.808;2023-05-10T16:16:17;11.13;;;6.60;;
32838;SDS011;19182;41.820;12.808;2023-05-10T16:18:42;5.65;;;2.50;;
32838;SDS011;19182;41.820;12.808;2023-05-10T16:21:08;27.42;;;15.10;;
32838;SDS011;19182;41.820;12.808;2023-05-10T16:23:34;45.47;;;26.55;;
32838;SDS011;19182;41.820;12.808;2023-05-10T16:25:59;35.00;;;17.45;;
32838;SDS011;19182;41.820;12.808;2023-05-10T16:28:26;41.10;;;21.20;;
32838;SDS011;19182;41.820;12.808;2023-05-10T16:30:52;17.50;;;8.95;;
32838;SDS011;19182;41.820;12.808;2023-05-10T16:33:18;6.95;;;2.90;;
32838;SDS011;19182;41.820;12.808;2023-05-10T16:35:44;16.10;;;7.43;;
32838;SDS011;19182;41.820;12.808;2023-05-10T16:38:10;9.82;;;4.93;;
32838;SDS011;19182;41.820;12.808;2023-05-10T16:40:37;8.18;;;5.35;;
32838;SDS011;19182;41.820;12.808;2023-05-10T16:43:03;6.65;;;3.42;;
32838;SDS011;19182;41.820;12.808;2023-05-10T16:45:33;5.05;;;3.58;;